Time;durP1;ratioP1;P1;durP2;ratioP2;P2;SDS_P1;SDS_P2;PMS_P1;PMS_P2;Temp;Humidity;BMP_temperature;BMP_pressure;BME280_temperature;BME280_humidity;BME280_pressure;Samples;Min_cycle;Max_cycle;Signal;HPM_P1;HPM_P2
2022/06/08 00:00:01;;;;;;;8.27;4.20;;;;;;;26.09;44.12;101103.56;5062230;28;20025;-70
2022/06/08 00:02:30;;;;;;;8.40;4.60;;;;;;;24.97;46.90;101104.88;5025518;28;20041;-70
2022/06/08 00:04:56;;;;;;;10.02;4.72;;;;;;;24.46;47.73;101105.50;5010612;28;20037;-70
2022/06/08 00:07:21;;;;;;;11.38;6.05;;;;;;;24.13;48.97;101103.19;5024971;28;20381;-69
2022/06/08 00:09:47;;;;;;;10.00;5.30;;;;;;;24.55;47.92;101104.91;5022924;28;20083;-70
2022/06/08 00:12:12;;;;;;;9.20;5.45;;;;;;;24.69;48.47;101103.19;5032406;28;20026;-70
2022/06/08 00:14:38;;;;;;;12.27;6.63;;;;;;;24.73;47.71;101088.69;5029577;28;20450;-70
2022/06/08 00:17:04;;;;;;;10.38;5.30;;;;;;;24.81;47.38;101094.38;5029045;28;20108;-69
2022/06/08 00:19:30;;;;;;;14.15;6.13;;;;;;;25.54;45.67;101082.34;5029952;28;20025;-69
2022/06/08 00:21:55;;;;;;;11.95;5.18;;;;;;;25.94;44.18;101077.81;5030432;28;20033;-70
2022/06/08 00:24:21;;;;;;;11.60;4.85;;;;;;;25.67;44.99;101081.50;5030617;28;20079;-70
2022/06/08 00:26:46;;;;;;;8.18;4.93;;;;;;;25.60;44.80;101074.88;5031483;28;20060;-70
2022/06/08 00:29:11;;;;;;;8.07;4.90;;;;;;;26.05;43.91;101076.13;5030691;28;20366;-70
2022/06/08 00:31:37;;;;;;;8.57;4.13;;;;;;;26.24;43.39;101075.66;5028975;28;20409;-70
2022/06/08 00:34:02;;;;;;;6.85;4.53;;;;;;;25.48;44.97;101076.56;5030647;28;20037;-69
2022/06/08 00:36:28;;;;;;;11.45;5.20;;;;;;;26.45;43.11;101067.03;5029822;28;20098;-69
2022/06/08 00:38:53;;;;;;;11.65;5.63;;;;;;;25.69;44.99;101058.13;5030302;28;20127;-69
2022/06/08 00:41:31;;;;;;;10.85;5.60;;;;;;;25.20;46.01;101051.69;5029720;28;20029;-70
2022/06/08 00:43:59;;;;;;;11.98;5.57;;;;;;;25.61;44.93;101057.81;5031511;28;20053;-70
2022/06/08 00:46:24;;;;;;;18.10;7.95;;;;;;;25.79;44.71;101048.50;5028534;28;20425;-69
2022/06/08 00:48:58;;;;;;;14.25;7.82;;;;;;;25.42;45.68;101051.09;5030180;28;20029;-70
2022/06/08 00:51:23;;;;;;;15.48;8.15;;;;;;;25.61;45.05;101044.44;5031373;28;20124;-70
2022/06/08 00:53:55;;;;;;;14.07;8.70;;;;;;;25.70;45.17;101033.09;5028676;28;20446;-70
2022/06/08 00:56:27;;;;;;;18.80;9.80;;;;;;;25.34;45.52;101042.75;5059517;28;20025;-70
2022/06/08 00:58:53;;;;;;;17.50;10.20;;;;;;;24.44;48.61;101032.63;5027051;28;20025;-69
2022/06/08 01:01:19;;;;;;;19.13;10.60;;;;;;;25.52;46.14;101036.09;5033996;28;20060;-70
2022/06/08 01:03:44;;;;;;;25.10;11.75;;;;;;;25.56;45.75;101029.56;5033284;28;20171;-70
2022/06/08 01:06:18;;;;;;;24.38;12.07;;;;;;;25.27;46.59;101025.38;5034704;28;20567;-69
2022/06/08 01:08:53;;;;;;;24.35;13.13;;;;;;;25.18;46.62;101022.38;5058635;28;20035;-70
2022/06/08 01:11:38;;;;;;;24.48;12.55;;;;;;;24.86;48.27;101019.22;5032557;28;20444;-70
2022/06/08 01:14:10;;;;;;;22.55;12.27;;;;;;;25.74;45.94;101021.22;5030409;28;20029;-69
2022/06/08 01:16:37;;;;;;;25.33;12.43;;;;;;;25.17;46.89;101019.78;5019998;28;20108;-69
2022/06/08 01:19:04;;;;;;;22.15;12.27;;;;;;;25.08;47.51;101010.59;5032935;28;20021;-70
2022/06/08 01:21:29;;;;;;;22.33;13.15;;;;;;;25.31;47.14;101006.31;5029612;28;20072;-69
2022/06/08 01:24:01;;;;;;;21.58;13.23;;;;;;;24.92;47.64;101009.91;5014801;28;20434;-69
2022/06/08 01:26:49;;;;;;;23.30;12.35;;;;;;;25.44;46.29;100995.66;5014722;28;20120;-70
2022/06/08 01:29:53;;;;;;;22.98;13.70;;;;;;;25.46;46.44;101001.75;5014250;28;20382;-69
2022/06/08 01:32:33;;;;;;;25.98;14.65;;;;;;;25.21;47.06;100995.41;5030967;28;20096;-69
2022/06/08 01:35:11;;;;;;;23.17;13.88;;;;;;;25.33;45.99;100998.22;5033898;28;20087;-69
2022/06/08 01:37:55;;;;;;;23.38;12.63;;;;;;;25.11;47.45;100988.97;5033456;28;20027;-69
2022/06/08 01:40:48;;;;;;;23.50;13.10;;;;;;;25.53;46.16;100984.31;5020038;28;20034;-69
2022/06/08 01:43:19;;;;;;;22.88;12.80;;;;;;;25.78;44.92;100982.53;5022510;28;20116;-70
2022/06/08 01:46:17;;;;;;;22.00;12.75;;;;;;;24.45;47.42;100980.91;5034624;28;20178;-70
2022/06/08 01:48:45;;;;;;;23.00;13.30;;;;;;;25.47;45.46;100974.03;5030728;28;20431;-69
2022/06/08 01:51:47;;;;;;;19.90;11.50;;;;;;;24.87;46.50;100965.66;5032427;28;20033;-69
2022/06/08 01:54:35;;;;;;;21.08;11.10;;;;;;;24.81;46.83;100959.84;5050244;28;20616;-70
2022/06/08 01:57:17;;;;;;;16.63;9.80;;;;;;;24.12;48.09;100958.13;5021656;28;20040;-69
2022/06/08 02:00:11;;;;;;;18.38;10.02;;;;;;;24.74;46.01;100948.72;5023580;28;20513;-69
2022/06/08 02:03:06;;;;;;;15.75;9.50;;;;;;;24.38;46.68;100952.88;5018417;28;20083;-69
2022/06/08 02:05:39;;;;;;;17.58;9.75;;;;;;;24.46;47.00;100945.22;4998333;28;20046;-69
2022/06/08 02:08:09;;;;;;;15.55;9.50;;;;;;;23.46;49.21;100955.16;5048096;28;20539;-70
2022/06/08 02:11:04;;;;;;;15.45;9.05;;;;;;;23.76;48.35;100946.16;5033081;28;20053;-69
2022/06/08 02:13:40;;;;;;;14.82;8.82;;;;;;;24.35;47.27;100943.25;5022489;28;20044;-69
2022/06/08 02:16:15;;;;;;;18.60;10.63;;;;;;;23.79;48.31;100948.63;5034888;28;20490;-70
2022/06/08 02:18:48;;;;;;;15.93;10.02;;;;;;;24.21;47.53;100938.84;5031431;28;20029;-70
2022/06/08 02:21:20;;;;;;;15.48;9.93;;;;;;;24.22;47.88;100937.88;5018314;28;20049;-70
2022/06/08 02:23:48;;;;;;;23.23;9.88;;;;;;;24.85;45.92;100930.16;5031843;28;20128;-70
2022/06/08 02:26:18;;;;;;;15.27;9.32;;;;;;;25.21;44.66;100925.88;5065420;28;20025;-69
2022/06/08 02:28:52;;;;;;;17.05;8.95;;;;;;;23.69;48.72;100932.38;5031355;28;20033;-69
2022/06/08 02:31:22;;;;;;;16.65;9.88;;;;;;;24.40;46.42;100918.94;5031427;28;20045;-69
2022/06/08 02:37:17;;;;;;;17.95;9.10;;;;;;;24.34;46.79;100914.00;5033046;28;20036;-69
2022/06/08 02:39:50;;;;;;;17.80;9.27;;;;;;;23.88;47.11;100918.72;5033119;28;20029;-69
2022/06/08 02:42:23;;;;;;;16.08;9.50;;;;;;;24.12;46.30;100915.41;5031865;28;20060;-70
2022/06/08 02:44:54;;;;;;;16.17;9.70;;;;;;;24.23;46.96;100917.38;5053425;28;20037;-70
2022/06/08 02:47:32;;;;;;;20.95;10.70;;;;;;;23.66;48.67;100907.72;5034248;28;20028;-69
2022/06/08 02:50:05;;;;;;;22.25;11.10;;;;;;;24.02;47.25;100914.31;5033056;28;20026;-69
2022/06/08 02:52:30;;;;;;;16.90;10.40;;;;;;;23.99;46.86;100909.19;5029482;28;20103;-69
2022/06/08 02:54:57;;;;;;;18.17;10.98;;;;;;;24.28;46.79;100903.72;5032790;28;20029;-70
2022/06/08 02:57:41;;;;;;;23.73;12.55;;;;;;;24.49;46.51;100902.25;5032830;28;20017;-69
2022/06/08 03:00:30;;;;;;;22.70;12.40;;;;;;;24.22;46.20;100895.16;5029800;28;20543;-69
2022/06/08 03:03:05;;;;;;;23.55;11.38;;;;;;;24.25;47.00;100903.91;5023204;28;20481;-69
2022/06/08 03:05:37;;;;;;;17.20;10.50;;;;;;;23.83;47.86;100896.78;5031628;28;20035;-69
2022/06/08 03:08:19;;;;;;;22.90;12.32;;;;;;;24.50;45.97;100892.44;5030053;28;20030;-69
2022/06/08 03:10:47;;;;;;;18.80;10.82;;;;;;;24.18;46.39;100892.78;5031648;28;20459;-69
2022/06/08 03:13:20;;;;;;;19.80;11.77;;;;;;;24.10;46.69;100884.41;5029228;28;20041;-69
2022/06/08 03:15:52;;;;;;;20.50;11.57;;;;;;;23.79;48.10;100892.59;5031619;28;20018;-69
2022/06/08 03:18:18;;;;;;;;;;;;;;;24.62;45.82;100890.78;5031064;28;20033;-69
2022/06/08 03:20:43;;;;;;;17.63;11.10;;;;;;;24.35;46.31;100883.66;5031732;28;20281;-69
2022/06/08 03:23:09;;;;;;;19.65;10.82;;;;;;;24.36;46.22;100880.03;5029742;28;20029;-69
2022/06/08 03:25:35;;;;;;;21.10;12.55;;;;;;;23.96;47.24;100882.66;5029736;28;20095;-69
2022/06/08 03:28:01;;;;;;;20.70;11.57;;;;;;;24.13;47.03;100873.56;5028767;28;20025;-69
2022/06/08 03:30:26;;;;;;;20.35;12.38;;;;;;;24.00;47.99;100878.84;5031663;28;20087;-69
2022/06/08 03:32:52;;;;;;;17.40;10.30;;;;;;;24.04;47.14;100875.00;5031088;28;20052;-70
2022/06/08 03:35:17;;;;;;;18.08;10.23;;;;;;;23.48;49.10;100877.69;5030397;28;20026;-69
2022/06/08 03:37:43;;;;;;;17.13;10.80;;;;;;;23.17;49.93;100880.50;5031020;28;20017;-70
2022/06/08 03:40:09;;;;;;;17.23;10.30;;;;;;;24.54;46.07;100886.78;5030397;28;20036;-70
2022/06/08 03:42:35;;;;;;;19.45;10.50;;;;;;;24.22;47.19;100873.81;5030367;28;20124;-69
2022/06/08 03:45:00;;;;;;;14.80;9.52;;;;;;;24.72;46.06;100881.19;5028279;28;20040;-70
2022/06/08 03:47:29;;;;;;;16.02;9.90;;;;;;;23.51;48.77;100877.53;5032007;28;20036;-69
2022/06/08 03:49:59;;;;;;;15.32;8.35;;;;;;;24.24;47.45;100880.88;5031517;28;20083;-70
2022/06/08 03:52:29;;;;;;;15.55;8.93;;;;;;;24.31;47.46;100884.81;5030441;28;20481;-70
2022/06/08 03:55:01;;;;;;;11.90;7.47;;;;;;;23.74;47.33;100884.06;5018345;28;20559;-70
2022/06/08 03:57:29;;;;;;;10.18;6.95;;;;;;;24.85;45.61;100881.16;5021601;28;20028;-69
2022/06/08 03:59:56;;;;;;;12.40;6.90;;;;;;;24.92;44.98;100877.09;5032852;28;20033;-70
2022/06/08 04:02:23;;;;;;;11.07;7.32;;;;;;;24.26;46.74;100877.09;5031196;28;20025;-70
2022/06/08 04:04:48;;;;;;;10.07;6.93;;;;;;;25.09;44.96;100875.06;5023484;28;20033;-69
2022/06/08 04:07:15;;;;;;;10.88;6.95;;;;;;;24.60;46.57;100876.66;5021150;28;20567;-70
2022/06/08 04:09:40;;;;;;;12.10;7.00;;;;;;;24.51;46.99;100875.44;5028950;28;20029;-70
2022/06/08 04:12:06;;;;;;;11.73;6.75;;;;;;;24.46;46.16;100866.91;5030632;28;20091;-69
2022/06/08 04:14:31;;;;;;;12.98;7.35;;;;;;;24.98;45.52;100866.00;5030083;28;20025;-69
2022/06/08 04:16:57;;;;;;;12.20;7.38;;;;;;;24.29;46.51;100868.03;5030150;28;20021;-69
2022/06/08 04:19:22;;;;;;;14.43;7.80;;;;;;;24.60;46.14;100860.63;5031108;28;20028;-69
2022/06/08 04:21:48;;;;;;;12.18;7.72;;;;;;;25.39;44.82;100856.03;5030960;28;20033;-69
2022/06/08 04:24:16;;;;;;;10.75;7.82;;;;;;;26.00;42.83;100847.13;5011346;28;20104;-70
2022/06/08 04:26:42;;;;;;;13.18;7.97;;;;;;;25.39;43.77;100856.03;5015505;28;20036;-69
2022/06/08 04:29:09;;;;;;;14.25;8.77;;;;;;;26.27;42.30;100854.03;5019661;28;20370;-69
2022/06/08 04:31:35;;;;;;;10.18;7.47;;;;;;;26.10;42.71;100848.16;5029095;28;20405;-69
2022/06/08 04:34:04;;;;;;;12.38;7.60;;;;;;;26.18;42.52;100853.78;5032584;28;20029;-69
2022/06/08 04:36:29;;;;;;;12.55;7.72;;;;;;;25.73;43.67;100851.72;5032032;28;20030;-69
2022/06/08 04:38:55;;;;;;;14.18;8.60;;;;;;;25.97;42.94;100847.34;5031275;28;20029;-69
2022/06/08 04:41:21;;;;;;;13.40;8.23;;;;;;;25.76;43.70;100856.00;5059425;28;20045;-69
2022/06/08 04:43:47;;;;;;;14.98;8.68;;;;;;;25.49;43.50;100848.19;5035257;28;20362;-69
2022/06/08 04:46:15;;;;;;;13.98;8.32;;;;;;;25.88;42.88;100857.78;5032686;28;21422;-69
2022/06/08 04:48:42;;;;;;;13.98;8.50;;;;;;;26.03;42.99;100846.91;5035199;28;20028;-69
2022/06/08 04:51:10;;;;;;;14.35;8.35;;;;;;;26.23;42.17;100848.94;5032291;28;20079;-70
2022/06/08 04:53:36;;;;;;;14.98;9.75;;;;;;;26.52;41.66;100837.81;5033351;28;20026;-70
2022/06/08 04:56:01;;;;;;;13.88;8.48;;;;;;;25.97;42.14;100837.47;5032900;28;20463;-71
2022/06/08 04:58:27;;;;;;;13.10;8.15;;;;;;;26.61;41.63;100840.75;5030047;28;20032;-70
2022/06/08 05:00:54;;;;;;;11.50;7.57;;;;;;;26.00;42.71;100839.91;5034350;28;20028;-71
2022/06/08 05:03:19;;;;;;;12.60;7.53;;;;;;;25.87;43.52;100837.31;5033632;28;20021;-70
2022/06/08 05:05:45;;;;;;;9.93;6.65;;;;;;;26.23;42.42;100832.84;5033463;28;20097;-70
2022/06/08 05:08:11;;;;;;;13.82;7.68;;;;;;;26.36;42.40;100837.28;5033112;28;20124;-71
2022/06/08 05:10:37;;;;;;;17.00;7.35;;;;;;;26.74;41.63;100836.16;5033644;28;20021;-70
2022/06/08 05:13:05;;;;;;;10.95;7.82;;;;;;;26.78;41.32;100836.75;5066030;28;20473;-70
2022/06/08 05:15:34;;;;;;;11.80;7.20;;;;;;;26.01;42.79;100830.09;5035005;28;20017;-70
2022/06/08 05:18:00;;;;;;;13.73;6.85;;;;;;;26.66;41.71;100817.13;5032202;28;20024;-71
2022/06/08 05:20:26;;;;;;;12.73;7.03;;;;;;;25.85;43.15;100812.47;5032787;28;20029;-70
2022/06/08 05:22:52;;;;;;;12.07;6.20;;;;;;;26.15;43.06;100808.47;5034564;28;20057;-70
2022/06/08 05:25:40;;;;;;;10.73;6.32;;;;;;;25.99;43.12;100802.56;5033001;28;20460;-70
2022/06/08 05:28:07;;;;;;;8.43;6.18;;;;;;;26.40;42.20;100801.25;5031859;28;20402;-70
2022/06/08 05:30:33;;;;;;;10.52;6.32;;;;;;;25.83;43.40;100801.03;5034395;28;20029;-70
2022/06/08 05:32:59;;;;;;;10.90;6.18;;;;;;;26.43;42.47;100795.63;5049940;28;20025;-70
2022/06/08 05:35:26;;;;;;;10.45;6.35;;;;;;;26.04;43.21;100803.94;5030922;28;20120;-70
2022/06/08 05:37:52;;;;;;;11.15;7.18;;;;;;;26.75;41.87;100800.34;5029244;28;20026;-70
2022/06/08 05:40:19;;;;;;;11.25;5.93;;;;;;;26.13;42.77;100810.44;5031064;28;20025;-70
2022/06/08 05:42:45;;;;;;;9.57;6.07;;;;;;;26.81;41.59;100799.00;5035981;28;20091;-70
2022/06/08 05:45:21;;;;;;;11.02;6.10;;;;;;;26.66;42.52;100795.69;5032700;28;20034;-70
2022/06/08 05:47:47;;;;;;;9.68;6.03;;;;;;;27.15;41.08;100786.44;5031208;28;20029;-70
2022/06/08 05:50:13;;;;;;;9.55;6.63;;;;;;;27.33;40.89;100777.88;5032124;28;20091;-70
2022/06/08 05:52:39;;;;;;;13.05;6.10;;;;;;;27.24;40.82;100774.97;5064566;28;20091;-70
2022/06/08 05:55:05;;;;;;;9.77;6.45;;;;;;;27.34;41.05;100771.50;5031194;28;20477;-70
2022/06/08 05:57:31;;;;;;;10.63;6.25;;;;;;;27.80;40.03;100769.56;5033962;28;20100;-70
2022/06/08 05:59:56;;;;;;;11.23;6.03;;;;;;;27.83;40.03;100770.13;5033958;28;20105;-70
2022/06/08 06:02:22;;;;;;;10.55;6.35;;;;;;;28.25;39.18;100770.19;5030779;28;20037;-70
2022/06/08 06:04:48;;;;;;;8.02;5.80;;;;;;;27.88;40.02;100767.91;5032661;28;20061;-70
2022/06/08 06:07:14;;;;;;;8.68;6.65;;;;;;;28.27;39.40;100762.84;5032293;28;20107;-70
2022/06/08 06:09:41;;;;;;;8.43;5.95;;;;;;;28.16;39.74;100768.28;5031389;28;20037;-70
2022/06/08 06:12:07;;;;;;;11.73;5.82;;;;;;;28.70;38.28;100762.78;5032467;28;20139;-71
2022/06/08 06:14:33;;;;;;;8.23;5.30;;;;;;;28.43;38.99;100761.53;5032406;28;20033;-70
2022/06/08 06:16:59;;;;;;;7.68;5.25;;;;;;;29.32;37.84;100757.34;5033016;28;20022;-70
2022/06/08 06:19:25;;;;;;;7.95;5.20;;;;;;;28.90;38.35;100751.13;5031575;28;20037;-70
2022/06/08 06:21:50;;;;;;;7.43;5.07;;;;;;;28.57;38.38;100758.47;5030134;28;20036;-70
2022/06/08 06:24:16;;;;;;;9.00;5.63;;;;;;;29.22;37.07;100747.41;5032514;28;20385;-70
2022/06/08 06:26:42;;;;;;;7.00;4.13;;;;;;;28.58;39.07;100754.78;5032101;28;20579;-70
2022/06/08 06:29:07;;;;;;;6.85;4.38;;;;;;;29.59;36.91;100738.69;5024223;28;20450;-70
2022/06/08 06:31:49;;;;;;;8.15;4.43;;;;;;;29.03;37.44;100747.34;5023355;28;20052;-70
2022/06/08 06:34:16;;;;;;;7.40;4.70;;;;;;;27.95;39.43;100746.78;5033154;28;20075;-70
2022/06/08 06:36:42;;;;;;;5.70;4.15;;;;;;;27.76;40.34;100755.53;5030797;28;20029;-70
2022/06/08 06:39:08;;;;;;;6.10;4.20;;;;;;;28.48;39.38;100753.91;5032035;28;20036;-70
2022/06/08 06:41:34;;;;;;;11.60;4.25;;;;;;;28.83;38.61;100746.44;5030589;28;20157;-70
2022/06/08 06:44:00;;;;;;;5.70;4.28;;;;;;;27.55;40.34;100750.97;5031336;28;20390;-70
2022/06/08 06:46:26;;;;;;;6.45;4.32;;;;;;;29.21;37.57;100742.13;5030427;28;20087;-70
2022/06/08 06:48:51;;;;;;;6.65;4.57;;;;;;;27.20;40.73;100746.69;5032030;28;20466;-70
2022/06/08 06:51:17;;;;;;;8.52;4.13;;;;;;;27.41;40.55;100745.91;5030649;28;20052;-70
2022/06/08 06:53:43;;;;;;;8.38;4.20;;;;;;;27.40;40.57;100741.53;5030897;28;20025;-70
2022/06/08 06:56:08;;;;;;;6.90;4.40;;;;;;;27.69;39.53;100747.13;5032803;28;20044;-70
2022/06/08 06:58:35;;;;;;;6.38;4.43;;;;;;;26.92;41.52;100743.53;5031807;28;20082;-71
2022/06/08 07:01:01;;;;;;;8.27;4.50;;;;;;;25.56;44.19;100748.59;5031120;28;20037;-69
2022/06/08 07:03:27;;;;;;;6.00;4.10;;;;;;;26.94;42.39;100742.56;5031368;28;20036;-70
2022/06/08 07:05:53;;;;;;;10.48;4.50;;;;;;;27.06;42.02;100744.25;5030270;28;20103;-70
2022/06/08 07:08:18;;;;;;;8.05;4.45;;;;;;;28.30;39.42;100739.38;5032268;28;20489;-70
2022/06/08 07:11:32;;;;;;;8.93;4.40;;;;;;;27.46;40.77;100729.41;5031402;28;20029;-69
2022/06/08 07:13:29;;;;;;;7.95;4.63;;;;;;;27.04;41.18;100736.34;5031736;28;20052;-70
2022/06/08 07:15:54;;;;;;;7.28;4.85;;;;;;;27.97;40.15;100735.91;5030181;28;20021;-69
2022/06/08 07:18:20;;;;;;;9.82;4.90;;;;;;;28.70;37.93;100726.03;5032611;28;20127;-70
2022/06/08 07:20:45;;;;;;;13.45;3.83;;;;;;;30.66;35.17;100719.75;5029924;28;20393;-69
2022/06/08 07:23:11;;;;;;;9.65;4.68;;;;;;;29.12;37.54;100725.00;5026328;28;20060;-70
2022/06/08 07:25:36;;;;;;;9.57;4.43;;;;;;;29.85;35.92;100721.09;5031060;28;20029;-70
2022/06/08 07:28:01;;;;;;;6.93;4.10;;;;;;;29.93;35.92;100719.38;5045243;28;20025;-70
2022/06/08 07:30:27;;;;;;;7.00;4.00;;;;;;;28.27;38.20;100719.88;5032700;28;20604;-70
2022/06/08 07:32:55;;;;;;;6.70;3.80;;;;;;;31.04;34.71;100709.78;5019982;28;20413;-70
2022/06/08 07:35:21;;;;;;;11.40;3.90;;;;;;;31.02;34.38;100704.50;5033457;28;20025;-70
2022/06/08 07:37:46;;;;;;;6.20;3.55;;;;;;;31.13;33.97;100698.03;5029512;28;20032;-69
2022/06/08 07:40:12;;;;;;;4.88;3.42;;;;;;;29.41;36.75;100702.66;5028610;28;20032;-70
2022/06/08 07:42:38;;;;;;;6.45;3.83;;;;;;;29.25;37.22;100703.22;5029589;28;20667;-71
2022/06/08 07:45:09;;;;;;;5.15;3.80;;;;;;;28.73;38.38;100708.78;5031593;28;20033;-70
2022/06/08 07:49:36;;;;;;;10.35;4.57;;;;;;;27.52;40.56;100719.03;5029598;28;20055;-70
2022/06/08 07:50:20;;;;;;;6.60;3.38;;;;;;;27.71;40.18;100706.72;5030083;28;20037;-70
2022/06/08 07:52:45;;;;;;;10.15;3.53;;;;;;;27.31;40.36;100705.53;5022904;28;20134;-70
2022/06/08 07:55:11;;;;;;;8.77;3.97;;;;;;;28.26;39.04;100712.78;5029628;28;20052;-70
2022/06/08 07:57:37;;;;;;;6.90;4.05;;;;;;;28.03;39.58;100719.31;5033978;28;20026;-69
2022/06/08 08:00:05;;;;;;;8.52;5.30;;;;;;;29.18;37.45;100704.75;5031672;28;20064;-70
2022/06/08 08:02:31;;;;;;;6.78;4.90;;;;;;;30.26;35.11;100708.25;5029993;28;20033;-70
2022/06/08 08:04:57;;;;;;;6.90;4.55;;;;;;;30.22;35.33;100710.38;5030676;28;20036;-69
2022/06/08 08:07:22;;;;;;;5.38;4.35;;;;;;;29.95;36.47;100701.25;5028981;28;20127;-70
2022/06/08 08:09:48;;;;;;;4.93;3.78;;;;;;;29.08;36.86;100705.56;5015079;28;20029;-68
2022/06/08 08:12:14;;;;;;;6.88;3.92;;;;;;;29.35;36.38;100703.25;5066179;28;20115;-69
2022/06/08 08:14:40;;;;;;;7.70;3.97;;;;;;;28.95;37.16;100707.69;5034798;28;20037;-69
2022/06/08 08:17:05;;;;;;;7.32;3.60;;;;;;;28.89;38.06;100710.91;5042840;28;20025;-69
2022/06/08 08:19:32;;;;;;;4.40;3.55;;;;;;;28.76;37.81;100700.41;5033463;28;20036;-69
2022/06/08 08:21:57;;;;;;;7.03;3.50;;;;;;;30.53;35.48;100699.38;5034546;28;20048;-68
2022/06/08 08:24:23;;;;;;;5.93;3.47;;;;;;;29.69;35.65;100694.72;5035731;28;20436;-68
2022/06/08 08:26:49;;;;;;;5.15;3.13;;;;;;;30.52;35.31;100704.91;5034036;28;20504;-68
2022/06/08 08:29:16;;;;;;;5.18;2.88;;;;;;;29.85;35.54;100700.38;5033908;28;20582;-68
2022/06/08 08:31:41;;;;;;;4.65;3.35;;;;;;;28.63;38.71;100694.41;5035391;28;20065;-68
2022/06/08 08:34:07;;;;;;;6.68;3.47;;;;;;;29.46;36.18;100700.41;5035574;28;20017;-69
2022/06/08 08:36:33;;;;;;;4.03;2.95;;;;;;;29.67;37.04;100696.72;5030017;28;20377;-68
2022/06/08 08:38:58;;;;;;;10.57;3.45;;;;;;;29.39;36.90;100700.13;5031741;28;20112;-69
2022/06/08 08:44:29;;;;;;;8.55;3.90;;;;;;;29.52;37.03;100689.06;5033569;28;20044;-68
2022/06/08 08:47:10;;;;;;;6.05;3.80;;;;;;;28.77;37.84;100688.69;5032314;28;20034;-69
2022/06/08 08:49:43;;;;;;;6.57;3.50;;;;;;;29.17;37.85;100694.97;5032202;28;20068;-70
2022/06/08 08:53:00;;;;;;;5.68;3.78;;;;;;;29.96;36.93;100699.38;5034529;28;20035;-69
2022/06/08 08:55:49;;;;;;;6.30;3.80;;;;;;;29.38;37.79;100702.97;4989667;28;20610;-68
2022/06/08 08:58:24;;;;;;;5.88;3.30;;;;;;;26.63;41.31;100702.13;5029391;28;20523;-69
2022/06/08 09:00:52;;;;;;;6.00;3.05;;;;;;;27.01;41.03;100704.41;5034292;28;20400;-69
2022/06/08 09:03:25;;;;;;;7.32;3.53;;;;;;;26.57;42.33;100709.66;5033834;28;20029;-69
2022/06/08 09:05:55;;;;;;;8.32;4.15;;;;;;;27.04;41.50;100711.34;5034255;28;20128;-68
2022/06/08 09:08:23;;;;;;;5.97;3.90;;;;;;;27.82;40.50;100698.63;5032793;28;20033;-69
2022/06/08 09:10:49;;;;;;;5.50;3.65;;;;;;;26.41;42.72;100706.50;5032590;28;20060;-68
2022/06/08 09:13:21;;;;;;;8.65;4.35;;;;;;;26.99;41.47;100700.16;5032745;28;20029;-69
2022/06/08 09:15:56;;;;;;;8.93;3.28;;;;;;;26.96;41.74;100700.41;5034535;28;20033;-68
2022/06/08 09:18:33;;;;;;;4.25;2.70;;;;;;;27.45;41.87;100703.56;5035657;28;20060;-69
2022/06/08 09:21:00;;;;;;;7.70;3.88;;;;;;;27.43;41.07;100701.84;5049736;28;20485;-69
2022/06/08 09:23:36;;;;;;;6.07;2.20;;;;;;;27.62;40.13;100702.16;5054559;28;20039;-68
2022/06/08 09:26:07;;;;;;;7.18;2.15;;;;;;;26.89;42.25;100705.41;5031830;28;20032;-69
2022/06/08 09:28:34;;;;;;;5.85;2.50;;;;;;;24.74;46.61;100702.88;5032618;28;20025;-70
2022/06/08 09:31:00;;;;;;;8.32;2.30;;;;;;;24.43;48.29;100710.38;5032784;28;20046;-70
2022/06/08 09:33:27;;;;;;;3.95;1.88;;;;;;;25.04;48.83;100704.28;5033763;28;20029;-68
2022/06/08 09:35:59;;;;;;;10.45;3.13;;;;;;;25.54;47.17;100701.50;5032985;28;20033;-69
2022/06/08 09:38:28;;;;;;;13.07;3.33;;;;;;;27.05;44.83;100705.00;5024518;28;20059;-69
2022/06/08 09:41:04;;;;;;;5.70;3.33;;;;;;;26.04;47.07;100709.38;5030222;28;20025;-69
2022/06/08 09:43:49;;;;;;;10.07;3.05;;;;;;;26.23;47.22;100701.59;5033018;28;20437;-69
2022/06/08 09:52:56;;;;;;;10.52;3.05;;;;;;;24.07;52.99;100713.78;5020159;28;20048;-70
2022/06/08 09:55:57;;;;;;;9.45;3.00;;;;;;;24.39;52.85;100708.88;5015497;28;20039;-69
2022/06/08 09:58:41;;;;;;;10.18;3.17;;;;;;;25.56;50.57;100703.13;5063430;28;20033;-68
2022/06/08 10:01:18;;;;;;;8.75;3.40;;;;;;;26.64;47.77;100706.47;5041320;28;20040;-69
2022/06/08 10:04:11;;;;;;;6.63;2.10;;;;;;;25.06;50.42;100713.06;5027136;28;20036;-69
2022/06/08 10:06:56;;;;;;;5.38;1.77;;;;;;;23.83;53.54;100717.13;5029391;28;20029;-70
2022/06/08 10:09:45;;;;;;;7.72;2.75;;;;;;;25.22;49.32;100708.28;5030300;28;20032;-70
2022/06/08 10:12:26;;;;;;;2.55;1.50;;;;;;;24.29;52.09;100719.34;5026025;28;20044;-70
2022/06/08 10:15:04;;;;;;;4.85;2.03;;;;;;;23.48;53.00;100723.88;5024946;28;20041;-70
2022/06/08 10:17:39;;;;;;;7.30;2.30;;;;;;;23.99;54.33;100714.31;5024122;28;20030;-69
2022/06/08 10:20:25;;;;;;;8.55;2.47;;;;;;;24.16;52.29;100723.84;5022278;28;20029;-69
2022/06/08 10:22:56;;;;;;;4.70;2.47;;;;;;;25.13;50.79;100708.97;5014366;28;20547;-69
2022/06/08 10:25:31;;;;;;;8.57;2.65;;;;;;;24.29;53.40;100724.69;5025939;28;20026;-68
2022/06/08 10:28:18;;;;;;;8.90;3.20;;;;;;;24.68;52.64;100714.00;5030208;28;20063;-69
2022/06/08 10:30:54;;;;;;;7.40;3.33;;;;;;;24.15;56.26;100723.00;5032436;28;20076;-69
2022/06/08 10:33:27;;;;;;;12.80;4.15;;;;;;;23.70;58.32;100717.13;5030787;28;20029;-69
2022/06/08 10:35:58;;;;;;;7.43;4.50;;;;;;;23.58;59.10;100716.13;5029281;28;20032;-69
2022/06/08 10:38:32;;;;;;;7.38;4.47;;;;;;;23.19;61.23;100710.66;5020927;28;20034;-69
2022/06/08 10:41:04;;;;;;;6.95;4.88;;;;;;;24.69;56.00;100705.03;5031939;28;20033;-69
2022/06/08 10:43:37;;;;;;;7.85;4.50;;;;;;;25.24;53.85;100706.34;5029743;28;20087;-69
2022/06/08 10:46:05;;;;;;;5.68;4.10;;;;;;;22.99;59.42;100722.56;5027867;28;20037;-69
2022/06/08 10:48:44;;;;;;;12.55;5.25;;;;;;;23.86;57.73;100728.47;5031614;28;20397;-69
2022/06/08 10:51:09;;;;;;;8.77;5.30;;;;;;;24.02;56.80;100712.28;5022748;28;20401;-69
2022/06/08 10:56:45;;;;;;;8.60;4.95;;;;;;;23.35;56.56;100715.81;5030816;28;20041;-69
2022/06/08 10:59:24;;;;;;;9.07;5.60;;;;;;;24.30;55.22;100721.03;5027751;28;20067;-68
2022/06/08 11:01:50;;;;;;;9.65;5.00;;;;;;;24.27;55.61;100725.75;5046119;28;20048;-68
2022/06/08 11:04:30;;;;;;;8.18;5.03;;;;;;;23.36;56.50;100719.34;5039923;28;20503;-68
2022/06/08 11:07:05;;;;;;;6.30;4.28;;;;;;;23.53;57.83;100716.44;5031507;28;20086;-69
2022/06/08 11:09:33;;;;;;;8.07;4.38;;;;;;;23.29;57.52;100716.22;5028427;28;20041;-68
2022/06/08 11:12:05;;;;;;;5.78;3.40;;;;;;;23.93;55.81;100718.25;5029210;28;20033;-69
2022/06/08 11:14:42;;;;;;;7.85;3.13;;;;;;;23.30;57.06;100707.28;5030408;28;20473;-69
2022/06/08 11:17:14;;;;;;;4.30;3.15;;;;;;;23.40;57.37;100715.53;5031491;28;20025;-69
2022/06/08 11:19:39;;;;;;;6.75;3.10;;;;;;;23.42;56.44;100707.44;5028460;28;20029;-69
2022/06/08 11:22:11;;;;;;;10.07;3.05;;;;;;;22.66;59.72;100714.91;5038557;28;20028;-68
2022/06/08 11:24:42;;;;;;;11.50;3.75;;;;;;;23.49;58.81;100714.94;5024073;28;20037;-69
2022/06/08 11:27:11;;;;;;;9.05;3.22;;;;;;;23.54;57.89;100706.63;5023991;28;20033;-69
2022/06/08 11:29:51;;;;;;;6.43;2.35;;;;;;;22.41;61.36;100711.09;5028372;28;20079;-68
2022/06/08 11:33:06;;;;;;;7.18;2.05;;;;;;;22.82;59.15;100699.66;5027467;28;20045;-69
2022/06/08 11:36:08;;;;;;;3.65;2.20;;;;;;;21.99;63.41;100699.44;5029237;28;20037;-69
2022/06/08 11:38:40;;;;;;;3.92;2.00;;;;;;;23.40;57.73;100694.19;5020444;28;20030;-69
2022/06/08 11:41:21;;;;;;;6.55;1.98;;;;;;;22.54;61.22;100700.53;5021387;28;20406;-69
2022/06/08 11:43:49;;;;;;;4.68;2.05;;;;;;;22.63;60.18;100688.47;5025235;28;20392;-68
2022/06/08 11:46:29;;;;;;;5.90;2.28;;;;;;;23.65;56.74;100688.06;5024629;28;20023;-68
2022/06/08 11:48:56;;;;;;;6.50;2.83;;;;;;;23.18;57.76;100687.59;5016373;28;20034;-68
2022/06/08 11:51:29;;;;;;;7.35;2.72;;;;;;;23.93;57.12;100690.72;5024289;28;20048;-68